sensor_id;sensor_type;location;lat;lon;timestamp;temperature;humidity
69589;SHT31;56792;50.644;17.984;2023-07-30T00:00:42;17.47;82.08
69589;SHT31;56792;50.644;17.984;2023-07-30T00:03:10;17.42;82.03
69589;SHT31;56792;50.644;17.984;2023-07-30T00:05:38;17.40;82.04
69589;SHT31;56792;50.644;17.984;2023-07-30T00:08:07;17.38;81.96
69589;SHT31;56792;50.644;17.984;2023-07-30T00:10:35;17.37;82.00
69589;SHT31;56792;50.644;17.984;2023-07-30T00:13:04;17.34;81.97
69589;SHT31;56792;50.644;17.984;2023-07-30T00:15:32;17.28;82.00
69589;SHT31;56792;50.644;17.984;2023-07-30T00:18:01;17.24;81.97
69589;SHT31;56792;50.644;17.984;2023-07-30T00:20:29;17.21;81.91
69589;SHT31;56792;50.644;17.984;2023-07-30T00:23:00;17.19;81.96
69589;SHT31;56792;50.644;17.984;2023-07-30T00:25:28;17.14;81.97
69589;SHT31;56792;50.644;17.984;2023-07-30T00:27:56;17.08;81.99
69589;SHT31;56792;50.644;17.984;2023-07-30T00:30:25;17.06;82.00
69589;SHT31;56792;50.644;17.984;2023-07-30T00:32:53;17.00;82.00
69589;SHT31;56792;50.644;17.984;2023-07-30T00:35:22;16.96;82.08
69589;SHT31;56792;50.644;17.984;2023-07-30T00:37:50;16.92;82.13
69589;SHT31;56792;50.644;17.984;2023-07-30T00:40:19;16.88;82.26
69589;SHT31;56792;50.644;17.984;2023-07-30T00:42:47;16.83;82.35
69589;SHT31;56792;50.644;17.984;2023-07-30T00:45:15;16.80;82.45
69589;SHT31;56792;50.644;17.984;2023-07-30T00:47:44;16.78;82.50
69589;SHT31;56792;50.644;17.984;2023-07-30T00:50:13;16.74;82.50
69589;SHT31;56792;50.644;17.984;2023-07-30T00:52:43;16.71;82.59
69589;SHT31;56792;50.644;17.984;2023-07-30T00:55:12;16.69;82.54
69589;SHT31;56792;50.644;17.984;2023-07-30T00:57:42;16.67;82.60
69589;SHT31;56792;50.644;17.984;2023-07-30T01:00:12;16.63;82.61
69589;SHT31;56792;50.644;17.984;2023-07-30T01:02:42;16.59;82.83
69589;SHT31;56792;50.644;17.984;2023-07-30T01:05:10;16.58;82.92
69589;SHT31;56792;50.644;17.984;2023-07-30T01:07:39;16.57;82.95
69589;SHT31;56792;50.644;17.984;2023-07-30T01:10:07;16.52;83.03
69589;SHT31;56792;50.644;17.984;2023-07-30T01:12:37;16.49;83.10
69589;SHT31;56792;50.644;17.984;2023-07-30T01:15:07;16.46;83.11
69589;SHT31;56792;50.644;17.984;2023-07-30T01:17:38;16.44;83.10
69589;SHT31;56792;50.644;17.984;2023-07-30T01:20:08;16.42;83.19
69589;SHT31;56792;50.644;17.984;2023-07-30T01:22:38;16.41;83.18
69589;SHT31;56792;50.644;17.984;2023-07-30T01:25:06;16.39;83.09
69589;SHT31;56792;50.644;17.984;2023-07-30T01:27:37;16.37;83.06
69589;SHT31;56792;50.644;17.984;2023-07-30T01:30:17;16.33;83.13
69589;SHT31;56792;50.644;17.984;2023-07-30T01:32:52;16.29;83.22
69589;SHT31;56792;50.644;17.984;2023-07-30T01:35:22;16.27;83.35
69589;SHT31;56792;50.644;17.984;2023-07-30T01:37:54;16.26;83.34
69589;SHT31;56792;50.644;17.984;2023-07-30T01:40:24;16.23;83.49
69589;SHT31;56792;50.644;17.984;2023-07-30T01:42:52;16.20;83.66
69589;SHT31;56792;50.644;17.984;2023-07-30T01:45:21;16.17;83.79
69589;SHT31;56792;50.644;17.984;2023-07-30T01:47:49;16.14;83.88
69589;SHT31;56792;50.644;17.984;2023-07-30T01:50:18;16.12;83.80
69589;SHT31;56792;50.644;17.984;2023-07-30T01:52:46;16.08;83.76
69589;SHT31;56792;50.644;17.984;2023-07-30T01:55:15;16.07;83.79
69589;SHT31;56792;50.644;17.984;2023-07-30T01:57:43;16.06;83.66
69589;SHT31;56792;50.644;17.984;2023-07-30T02:00:12;16.01;83.66
69589;SHT31;56792;50.644;17.984;2023-07-30T02:02:41;15.97;83.76
69589;SHT31;56792;50.644;17.984;2023-07-30T02:05:09;15.94;83.72
69589;SHT31;56792;50.644;17.984;2023-07-30T02:07:38;15.92;83.70
69589;SHT31;56792;50.644;17.984;2023-07-30T02:10:07;15.89;83.72
69589;SHT31;56792;50.644;17.984;2023-07-30T02:12:36;15.87;83.77
69589;SHT31;56792;50.644;17.984;2023-07-30T02:15:06;15.86;83.95
69589;SHT31;56792;50.644;17.984;2023-07-30T02:17:35;15.85;83.94
69589;SHT31;56792;50.644;17.984;2023-07-30T02:20:04;15.87;83.91
69589;SHT31;56792;50.644;17.984;2023-07-30T02:22:36;15.85;84.00
69589;SHT31;56792;50.644;17.984;2023-07-30T02:25:05;15.84;84.00
69589;SHT31;56792;50.644;17.984;2023-07-30T02:27:34;15.82;84.03
69589;SHT31;56792;50.644;17.984;2023-07-30T02:30:02;15.79;83.90
69589;SHT31;56792;50.644;17.984;2023-07-30T02:32:33;15.75;84.05
69589;SHT31;56792;50.644;17.984;2023-07-30T02:35:02;15.73;84.15
69589;SHT31;56792;50.644;17.984;2023-07-30T02:37:32;15.70;84.09
69589;SHT31;56792;50.644;17.984;2023-07-30T02:40:01;15.69;83.96
69589;SHT31;56792;50.644;17.984;2023-07-30T02:42:30;15.67;83.99
69589;SHT31;56792;50.644;17.984;2023-07-30T02:44:59;15.65;84.06
69589;SHT31;56792;50.644;17.984;2023-07-30T02:47:27;15.62;84.11
69589;SHT31;56792;50.644;17.984;2023-07-30T02:49:55;15.61;84.16
69589;SHT31;56792;50.644;17.984;2023-07-30T02:52:24;15.60;84.20
69589;SHT31;56792;50.644;17.984;2023-07-30T02:54:52;15.60;84.30
69589;SHT31;56792;50.644;17.984;2023-07-30T02:57:21;15.59;84.33
69589;SHT31;56792;50.644;17.984;2023-07-30T02:59:49;15.57;84.44
69589;SHT31;56792;50.644;17.984;2023-07-30T03:02:18;15.55;84.50
69589;SHT31;56792;50.644;17.984;2023-07-30T03:04:46;15.53;84.53
69589;SHT31;56792;50.644;17.984;2023-07-30T03:07:15;15.52;84.57
69589;SHT31;56792;50.644;17.984;2023-07-30T03:09:44;15.51;84.67
69589;SHT31;56792;50.644;17.984;2023-07-30T03:12:13;15.51;84.79
69589;SHT31;56792;50.644;17.984;2023-07-30T03:14:41;15.52;84.82
69589;SHT31;56792;50.644;17.984;2023-07-30T03:17:09;15.52;84.82
69589;SHT31;56792;50.644;17.984;2023-07-30T03:19:38;15.50;84.77
69589;SHT31;56792;50.644;17.984;2023-07-30T03:22:06;15.50;84.72
69589;SHT31;56792;50.644;17.984;2023-07-30T03:24:34;15.50;84.61
69589;SHT31;56792;50.644;17.984;2023-07-30T03:27:03;15.48;84.50
69589;SHT31;56792;50.644;17.984;2023-07-30T03:29:33;15.48;84.49
69589;SHT31;56792;50.644;17.984;2023-07-30T03:32:01;15.46;84.41
69589;SHT31;56792;50.644;17.984;2023-07-30T03:34:30;15.46;84.42
69589;SHT31;56792;50.644;17.984;2023-07-30T03:36:59;15.43;84.42
69589;SHT31;56792;50.644;17.984;2023-07-30T03:39:27;15.41;84.46
69589;SHT31;56792;50.644;17.984;2023-07-30T03:41:56;15.41;84.56
69589;SHT31;56792;50.644;17.984;2023-07-30T03:44:24;15.41;84.71
69589;SHT31;56792;50.644;17.984;2023-07-30T03:46:52;15.40;84.68
69589;SHT31;56792;50.644;17.984;2023-07-30T03:49:21;15.41;84.82
69589;SHT31;56792;50.644;17.984;2023-07-30T03:51:49;15.41;84.94
69589;SHT31;56792;50.644;17.984;2023-07-30T03:54:18;15.42;84.99
69589;SHT31;56792;50.644;17.984;2023-07-30T03:56:46;15.43;85.07
69589;SHT31;56792;50.644;17.984;2023-07-30T03:59:15;15.43;85.00
69589;SHT31;56792;50.644;17.984;2023-07-30T04:01:43;15.44;85.05
69589;SHT31;56792;50.644;17.984;2023-07-30T04:04:12;15.47;85.09
69589;SHT31;56792;50.644;17.984;2023-07-30T04:06:40;15.49;85.03
69589;SHT31;56792;50.644;17.984;2023-07-30T04:09:08;15.51;85.09
69589;SHT31;56792;50.644;17.984;2023-07-30T04:11:37;15.55;85.10
69589;SHT31;56792;50.644;17.984;2023-07-30T04:14:06;15.58;85.06
69589;SHT31;56792;50.644;17.984;2023-07-30T04:16:34;15.61;84.99
69589;SHT31;56792;50.644;17.984;2023-07-30T04:19:03;15.64;85.00
69589;SHT31;56792;50.644;17.984;2023-07-30T04:21:31;15.68;84.93
69589;SHT31;56792;50.644;17.984;2023-07-30T04:24:00;15.71;84.87
69589;SHT31;56792;50.644;17.984;2023-07-30T04:26:29;15.75;84.81
69589;SHT31;56792;50.644;17.984;2023-07-30T04:28:57;15.79;84.70
69589;SHT31;56792;50.644;17.984;2023-07-30T04:31:25;15.82;84.70
69589;SHT31;56792;50.644;17.984;2023-07-30T04:33:54;15.85;84.69
69589;SHT31;56792;50.644;17.984;2023-07-30T04:36:22;15.90;84.68
69589;SHT31;56792;50.644;17.984;2023-07-30T04:38:50;15.94;84.66
69589;SHT31;56792;50.644;17.984;2023-07-30T04:41:23;15.99;84.70
69589;SHT31;56792;50.644;17.984;2023-07-30T04:43:56;16.05;84.68
69589;SHT31;56792;50.644;17.984;2023-07-30T04:46:26;16.11;84.57
69589;SHT31;56792;50.644;17.984;2023-07-30T04:48:56;16.18;84.49
69589;SHT31;56792;50.644;17.984;2023-07-30T04:51:24;16.25;84.42
69589;SHT31;56792;50.644;17.984;2023-07-30T04:53:53;16.34;84.11
69589;SHT31;56792;50.644;17.984;2023-07-30T04:56:21;16.44;84.12
69589;SHT31;56792;50.644;17.984;2023-07-30T04:58:52;16.53;84.05
69589;SHT31;56792;50.644;17.984;2023-07-30T05:01:21;16.61;83.82
69589;SHT31;56792;50.644;17.984;2023-07-30T05:03:51;16.72;83.65
69589;SHT31;56792;50.644;17.984;2023-07-30T05:06:19;16.82;83.58
69589;SHT31;56792;50.644;17.984;2023-07-30T05:08:48;16.92;83.45
69589;SHT31;56792;50.644;17.984;2023-07-30T05:11:16;17.02;83.28
69589;SHT31;56792;50.644;17.984;2023-07-30T05:13:45;17.12;82.97
69589;SHT31;56792;50.644;17.984;2023-07-30T05:16:13;17.20;82.81
69589;SHT31;56792;50.644;17.984;2023-07-30T05:18:41;17.26;82.59
69589;SHT31;56792;50.644;17.984;2023-07-30T05:21:10;17.33;82.38
69589;SHT31;56792;50.644;17.984;2023-07-30T05:23:38;17.41;82.12
69589;SHT31;56792;50.644;17.984;2023-07-30T05:26:06;17.49;82.18
69589;SHT31;56792;50.644;17.984;2023-07-30T05:28:35;17.56;81.97
69589;SHT31;56792;50.644;17.984;2023-07-30T05:31:03;17.65;81.96
69589;SHT31;56792;50.644;17.984;2023-07-30T05:33:31;17.73;81.89
69589;SHT31;56792;50.644;17.984;2023-07-30T05:36:00;17.82;81.61
69589;SHT31;56792;50.644;17.984;2023-07-30T05:38:28;17.91;81.29
69589;SHT31;56792;50.644;17.984;2023-07-30T05:40:56;18.03;81.11
69589;SHT31;56792;50.644;17.984;2023-07-30T05:43:25;18.15;81.01
69589;SHT31;56792;50.644;17.984;2023-07-30T05:45:53;18.28;80.67
69589;SHT31;56792;50.644;17.984;2023-07-30T05:48:21;18.40;80.57
69589;SHT31;56792;50.644;17.984;2023-07-30T05:50:50;18.52;80.06
69589;SHT31;56792;50.644;17.984;2023-07-30T05:53:18;18.63;79.93
69589;SHT31;56792;50.644;17.984;2023-07-30T05:55:47;18.75;79.30
69589;SHT31;56792;50.644;17.984;2023-07-30T05:58:15;18.85;79.34
69589;SHT31;56792;50.644;17.984;2023-07-30T06:00:43;18.99;79.13
69589;SHT31;56792;50.644;17.984;2023-07-30T06:03:12;19.11;78.77
69589;SHT31;56792;50.644;17.984;2023-07-30T06:05:40;19.23;78.17
69589;SHT31;56792;50.644;17.984;2023-07-30T06:08:09;19.34;78.01
69589;SHT31;56792;50.644;17.984;2023-07-30T06:10:37;19.47;77.65
69589;SHT31;56792;50.644;17.984;2023-07-30T06:13:06;19.58;77.43
69589;SHT31;56792;50.644;17.984;2023-07-30T06:15:35;19.70;77.15
69589;SHT31;56792;50.644;17.984;2023-07-30T06:18:03;19.81;76.64
69589;SHT31;56792;50.644;17.984;2023-07-30T06:20:31;19.93;76.57
69589;SHT31;56792;50.644;17.984;2023-07-30T06:23:00;20.09;76.32
69589;SHT31;56792;50.644;17.984;2023-07-30T06:25:29;20.23;75.34
69589;SHT31;56792;50.644;17.984;2023-07-30T06:27:58;20.38;74.59
69589;SHT31;56792;50.644;17.984;2023-07-30T06:30:26;20.55;74.46
69589;SHT31;56792;50.644;17.984;2023-07-30T06:32:55;20.72;74.02
69589;SHT31;56792;50.644;17.984;2023-07-30T06:35:23;20.91;73.92
69589;SHT31;56792;50.644;17.984;2023-07-30T06:37:51;21.09;73.02
69589;SHT31;56792;50.644;17.984;2023-07-30T06:40:20;21.25;72.25
69589;SHT31;56792;50.644;17.984;2023-07-30T06:42:49;21.44;71.28
69589;SHT31;56792;50.644;17.984;2023-07-30T06:45:17;21.61;71.30
69589;SHT31;56792;50.644;17.984;2023-07-30T06:47:46;21.77;70.74
69589;SHT31;56792;50.644;17.984;2023-07-30T06:50:14;21.95;70.36
69589;SHT31;56792;50.644;17.984;2023-07-30T06:52:43;22.06;69.15
69589;SHT31;56792;50.644;17.984;2023-07-30T06:55:11;22.22;69.38
69589;SHT31;56792;50.644;17.984;2023-07-30T06:57:39;22.43;69.87
69589;SHT31;56792;50.644;17.984;2023-07-30T07:00:08;22.66;69.68
69589;SHT31;56792;50.644;17.984;2023-07-30T07:02:44;22.88;68.91
69589;SHT31;56792;50.644;17.984;2023-07-30T07:05:13;23.05;68.68
69589;SHT31;56792;50.644;17.984;2023-07-30T07:07:41;23.26;68.50
69589;SHT31;56792;50.644;17.984;2023-07-30T07:10:11;23.46;67.73
69589;SHT31;56792;50.644;17.984;2023-07-30T07:12:39;23.62;66.71
69589;SHT31;56792;50.644;17.984;2023-07-30T07:15:08;23.73;65.58
69589;SHT31;56792;50.644;17.984;2023-07-30T07:17:36;23.89;65.53
69589;SHT31;56792;50.644;17.984;2023-07-30T07:20:06;24.09;66.19
69589;SHT31;56792;50.644;17.984;2023-07-30T07:22:36;24.29;66.11
69589;SHT31;56792;50.644;17.984;2023-07-30T07:25:05;24.49;64.33
69589;SHT31;56792;50.644;17.984;2023-07-30T07:27:35;24.64;63.38
69589;SHT31;56792;50.644;17.984;2023-07-30T07:30:04;24.81;63.84
69589;SHT31;56792;50.644;17.984;2023-07-30T07:32:35;24.97;62.96
69589;SHT31;56792;50.644;17.984;2023-07-30T07:35:05;25.13;63.34
69589;SHT31;56792;50.644;17.984;2023-07-30T07:37:36;25.33;63.68
69589;SHT31;56792;50.644;17.984;2023-07-30T07:40:05;25.53;62.41
69589;SHT31;56792;50.644;17.984;2023-07-30T07:42:37;25.67;60.42
69589;SHT31;56792;50.644;17.984;2023-07-30T07:45:07;25.74;59.51
69589;SHT31;56792;50.644;17.984;2023-07-30T07:47:36;25.84;59.31
69589;SHT31;56792;50.644;17.984;2023-07-30T07:50:05;25.93;58.27
69589;SHT31;56792;50.644;17.984;2023-07-30T07:52:35;25.98;58.46
69589;SHT31;56792;50.644;17.984;2023-07-30T07:55:04;26.20;58.46
69589;SHT31;56792;50.644;17.984;2023-07-30T07:57:34;26.46;59.37
69589;SHT31;56792;50.644;17.984;2023-07-30T08:00:03;26.69;57.70
69589;SHT31;56792;50.644;17.984;2023-07-30T08:02:38;26.86;58.02
69589;SHT31;56792;50.644;17.984;2023-07-30T08:05:06;27.01;56.48
69589;SHT31;56792;50.644;17.984;2023-07-30T08:07:35;27.05;56.41
69589;SHT31;56792;50.644;17.984;2023-07-30T08:10:04;27.17;56.10
69589;SHT31;56792;50.644;17.984;2023-07-30T08:12:34;27.40;57.21
69589;SHT31;56792;50.644;17.984;2023-07-30T08:15:03;27.65;55.78
69589;SHT31;56792;50.644;17.984;2023-07-30T08:17:33;27.86;55.86
69589;SHT31;56792;50.644;17.984;2023-07-30T08:20:02;28.06;55.71
69589;SHT31;56792;50.644;17.984;2023-07-30T08:22:32;28.20;53.44
69589;SHT31;56792;50.644;17.984;2023-07-30T08:25:01;28.18;52.34
69589;SHT31;56792;50.644;17.984;2023-07-30T08:27:30;28.08;52.06
69589;SHT31;56792;50.644;17.984;2023-07-30T08:29:59;28.16;52.43
69589;SHT31;56792;50.644;17.984;2023-07-30T08:32:27;28.33;52.90
69589;SHT31;56792;50.644;17.984;2023-07-30T08:34:56;28.52;52.32
69589;SHT31;56792;50.644;17.984;2023-07-30T08:37:24;28.56;51.24
69589;SHT31;56792;50.644;17.984;2023-07-30T08:39:53;28.57;51.41
69589;SHT31;56792;50.644;17.984;2023-07-30T08:42:21;28.66;51.00
69589;SHT31;56792;50.644;17.984;2023-07-30T08:44:50;28.74;49.78
69589;SHT31;56792;50.644;17.984;2023-07-30T08:47:18;28.69;50.07
69589;SHT31;56792;50.644;17.984;2023-07-30T08:49:47;28.85;51.18
69589;SHT31;56792;50.644;17.984;2023-07-30T08:52:15;29.12;51.47
69589;SHT31;56792;50.644;17.984;2023-07-30T08:54:49;29.35;50.82
69589;SHT31;56792;50.644;17.984;2023-07-30T08:57:19;29.49;49.92
69589;SHT31;56792;50.644;17.984;2023-07-30T08:59:50;29.44;49.45
69589;SHT31;56792;50.644;17.984;2023-07-30T09:02:30;29.55;49.59
69589;SHT31;56792;50.644;17.984;2023-07-30T09:05:06;29.64;49.08
69589;SHT31;56792;50.644;17.984;2023-07-30T09:07:35;29.53;48.59
69589;SHT31;56792;50.644;17.984;2023-07-30T09:10:04;29.45;48.05
69589;SHT31;56792;50.644;17.984;2023-07-30T09:12:34;29.43;48.05
69589;SHT31;56792;50.644;17.984;2023-07-30T09:15:04;29.30;47.08
69589;SHT31;56792;50.644;17.984;2023-07-30T09:17:35;29.10;47.38
69589;SHT31;56792;50.644;17.984;2023-07-30T09:20:06;29.14;47.84
69589;SHT31;56792;50.644;17.984;2023-07-30T09:22:39;29.14;47.61
69589;SHT31;56792;50.644;17.984;2023-07-30T09:25:08;29.23;48.84
69589;SHT31;56792;50.644;17.984;2023-07-30T09:27:36;29.39;48.56
69589;SHT31;56792;50.644;17.984;2023-07-30T09:30:06;29.47;47.49
69589;SHT31;56792;50.644;17.984;2023-07-30T09:32:35;29.20;47.12
69589;SHT31;56792;50.644;17.984;2023-07-30T09:35:04;29.14;49.26
69589;SHT31;56792;50.644;17.984;2023-07-30T09:37:36;29.25;49.21
69589;SHT31;56792;50.644;17.984;2023-07-30T09:40:08;29.25;48.54
69589;SHT31;56792;50.644;17.984;2023-07-30T09:42:41;29.34;49.05
69589;SHT31;56792;50.644;17.984;2023-07-30T09:45:17;29.30;48.11
69589;SHT31;56792;50.644;17.984;2023-07-30T09:47:48;29.30;48.42
69589;SHT31;56792;50.644;17.984;2023-07-30T09:50:17;29.32;46.95
69589;SHT31;56792;50.644;17.984;2023-07-30T09:52:46;29.22;47.32
69589;SHT31;56792;50.644;17.984;2023-07-30T09:55:16;29.20;47.40
69589;SHT31;56792;50.644;17.984;2023-07-30T09:57:45;29.27;48.22
69589;SHT31;56792;50.644;17.984;2023-07-30T10:00:13;29.45;49.05
69589;SHT31;56792;50.644;17.984;2023-07-30T10:02:46;29.64;49.12
69589;SHT31;56792;50.644;17.984;2023-07-30T10:05:16;29.80;48.23
69589;SHT31;56792;50.644;17.984;2023-07-30T10:07:49;29.93;47.22
69589;SHT31;56792;50.644;17.984;2023-07-30T10:10:22;30.00;46.40
69589;SHT31;56792;50.644;17.984;2023-07-30T10:12:54;29.99;46.68
69589;SHT31;56792;50.644;17.984;2023-07-30T10:15:26;30.08;46.49
69589;SHT31;56792;50.644;17.984;2023-07-30T10:17:55;30.08;45.66
69589;SHT31;56792;50.644;17.984;2023-07-30T10:20:24;30.05;45.54
69589;SHT31;56792;50.644;17.984;2023-07-30T10:22:56;30.12;46.19
69589;SHT31;56792;50.644;17.984;2023-07-30T10:25:27;30.24;46.30
69589;SHT31;56792;50.644;17.984;2023-07-30T10:28:07;30.29;45.71
69589;SHT31;56792;50.644;17.984;2023-07-30T10:30:55;30.24;45.40
69589;SHT31;56792;50.644;17.984;2023-07-30T10:33:26;30.26;46.04
69589;SHT31;56792;50.644;17.984;2023-07-30T10:36:13;30.37;44.98
69589;SHT31;56792;50.644;17.984;2023-07-30T10:38:44;30.35;44.76
69589;SHT31;56792;50.644;17.984;2023-07-30T10:41:13;30.30;44.50
69589;SHT31;56792;50.644;17.984;2023-07-30T10:43:43;30.29;45.41
69589;SHT31;56792;50.644;17.984;2023-07-30T10:46:17;30.24;44.55
69589;SHT31;56792;50.644;17.984;2023-07-30T10:48:46;30.27;45.39
69589;SHT31;56792;50.644;17.984;2023-07-30T10:51:16;30.43;44.63
69589;SHT31;56792;50.644;17.984;2023-07-30T10:53:46;30.50;43.87
69589;SHT31;56792;50.644;17.984;2023-07-30T10:56:17;30.72;43.62
69589;SHT31;56792;50.644;17.984;2023-07-30T10:58:50;31.18;43.63
69589;SHT31;56792;50.644;17.984;2023-07-30T11:01:20;31.48;41.59
69589;SHT31;56792;50.644;17.984;2023-07-30T11:03:52;31.71;41.08
69589;SHT31;56792;50.644;17.984;2023-07-30T11:06:24;31.87;39.79
69589;SHT31;56792;50.644;17.984;2023-07-30T11:08:53;31.90;39.89
69589;SHT31;56792;50.644;17.984;2023-07-30T11:11:21;31.80;38.99
69589;SHT31;56792;50.644;17.984;2023-07-30T11:13:51;31.60;39.57
69589;SHT31;56792;50.644;17.984;2023-07-30T11:16:19;31.48;38.86
69589;SHT31;56792;50.644;17.984;2023-07-30T11:18:48;31.36;40.37
69589;SHT31;56792;50.644;17.984;2023-07-30T11:21:17;31.91;40.96
69589;SHT31;56792;50.644;17.984;2023-07-30T11:23:46;32.59;39.46
69589;SHT31;56792;50.644;17.984;2023-07-30T11:26:17;33.08;39.26
69589;SHT31;56792;50.644;17.984;2023-07-30T11:28:46;33.38;39.11
69589;SHT31;56792;50.644;17.984;2023-07-30T11:31:15;33.20;38.23
69589;SHT31;56792;50.644;17.984;2023-07-30T11:33:46;33.00;38.66
69589;SHT31;56792;50.644;17.984;2023-07-30T11:36:19;33.02;37.52
69589;SHT31;56792;50.644;17.984;2023-07-30T11:38:50;32.55;38.26
69589;SHT31;56792;50.644;17.984;2023-07-30T11:41:20;32.60;39.00
69589;SHT31;56792;50.644;17.984;2023-07-30T11:43:50;32.88;38.59
69589;SHT31;56792;50.644;17.984;2023-07-30T11:46:18;33.10;37.51
69589;SHT31;56792;50.644;17.984;2023-07-30T11:48:49;33.14;38.15
69589;SHT31;56792;50.644;17.984;2023-07-30T11:51:20;33.25;37.02
69589;SHT31;56792;50.644;17.984;2023-07-30T11:53:51;33.30;38.00
69589;SHT31;56792;50.644;17.984;2023-07-30T11:56:21;34.10;37.66
69589;SHT31;56792;50.644;17.984;2023-07-30T11:58:53;35.68;35.38
69589;SHT31;56792;50.644;17.984;2023-07-30T12:01:24;37.17;34.04
69589;SHT31;56792;50.644;17.984;2023-07-30T12:03:55;38.26;32.55
69589;SHT31;56792;50.644;17.984;2023-07-30T12:06:25;39.02;31.02
69589;SHT31;56792;50.644;17.984;2023-07-30T12:09:10;39.89;29.00
69589;SHT31;56792;50.644;17.984;2023-07-30T12:11:44;40.67;28.86
69589;SHT31;56792;50.644;17.984;2023-07-30T12:14:15;42.03;28.19
69589;SHT31;56792;50.644;17.984;2023-07-30T12:16:44;43.22;26.89
69589;SHT31;56792;50.644;17.984;2023-07-30T12:19:12;43.79;26.00
69589;SHT31;56792;50.644;17.984;2023-07-30T12:21:41;42.77;26.24
69589;SHT31;56792;50.644;17.984;2023-07-30T12:24:09;43.07;26.21
69589;SHT31;56792;50.644;17.984;2023-07-30T12:26:37;43.42;25.62
69589;SHT31;56792;50.644;17.984;2023-07-30T12:29:06;41.96;26.07
69589;SHT31;56792;50.644;17.984;2023-07-30T12:31:34;40.35;27.27
69589;SHT31;56792;50.644;17.984;2023-07-30T12:34:03;39.51;28.04
69589;SHT31;56792;50.644;17.984;2023-07-30T12:36:31;38.67;27.89
69589;SHT31;56792;50.644;17.984;2023-07-30T12:38:59;37.40;28.54
69589;SHT31;56792;50.644;17.984;2023-07-30T12:41:28;36.14;29.28
69589;SHT31;56792;50.644;17.984;2023-07-30T12:43:57;35.17;30.90
69589;SHT31;56792;50.644;17.984;2023-07-30T12:46:25;34.51;31.17
69589;SHT31;56792;50.644;17.984;2023-07-30T12:48:55;33.88;32.21
69589;SHT31;56792;50.644;17.984;2023-07-30T12:51:28;33.37;33.00
69589;SHT31;56792;50.644;17.984;2023-07-30T12:53:56;32.89;33.61
69589;SHT31;56792;50.644;17.984;2023-07-30T12:56:25;32.47;34.16
69589;SHT31;56792;50.644;17.984;2023-07-30T12:58:53;32.18;35.18
69589;SHT31;56792;50.644;17.984;2023-07-30T13:01:21;32.59;34.91
69589;SHT31;56792;50.644;17.984;2023-07-30T13:03:50;32.79;34.46
69589;SHT31;56792;50.644;17.984;2023-07-30T13:06:20;32.73;34.85
69589;SHT31;56792;50.644;17.984;2023-07-30T13:08:49;32.63;34.99
69589;SHT31;56792;50.644;17.984;2023-07-30T13:11:18;32.94;35.42
69589;SHT31;56792;50.644;17.984;2023-07-30T13:13:46;33.23;35.54
69589;SHT31;56792;50.644;17.984;2023-07-30T13:16:14;33.15;35.10
69589;SHT31;56792;50.644;17.984;2023-07-30T13:18:43;32.88;35.40
69589;SHT31;56792;50.644;17.984;2023-07-30T13:21:11;32.49;35.90
69589;SHT31;56792;50.644;17.984;2023-07-30T13:23:39;32.17;36.31
69589;SHT31;56792;50.644;17.984;2023-07-30T13:26:08;32.15;36.83
69589;SHT31;56792;50.644;17.984;2023-07-30T13:28:36;32.07;36.92
69589;SHT31;56792;50.644;17.984;2023-07-30T13:31:04;31.86;37.13
69589;SHT31;56792;50.644;17.984;2023-07-30T13:33:33;31.82;37.20
69589;SHT31;56792;50.644;17.984;2023-07-30T13:36:01;31.83;37.29
69589;SHT31;56792;50.644;17.984;2023-07-30T13:38:31;31.95;37.42
69589;SHT31;56792;50.644;17.984;2023-07-30T13:41:00;31.86;36.89
69589;SHT31;56792;50.644;17.984;2023-07-30T13:43:28;31.51;37.05
69589;SHT31;56792;50.644;17.984;2023-07-30T13:45:56;31.23;37.89
69589;SHT31;56792;50.644;17.984;2023-07-30T13:48:25;30.98;37.65
69589;SHT31;56792;50.644;17.984;2023-07-30T13:50:53;30.66;38.64
69589;SHT31;56792;50.644;17.984;2023-07-30T13:53:21;30.50;38.94
69589;SHT31;56792;50.644;17.984;2023-07-30T13:55:50;30.45;39.45
69589;SHT31;56792;50.644;17.984;2023-07-30T13:58:18;30.23;39.46
69589;SHT31;56792;50.644;17.984;2023-07-30T14:00:46;30.10;39.82
69589;SHT31;56792;50.644;17.984;2023-07-30T14:03:15;29.91;39.75
69589;SHT31;56792;50.644;17.984;2023-07-30T14:05:43;29.67;39.89
69589;SHT31;56792;50.644;17.984;2023-07-30T14:08:12;29.47;40.23
69589;SHT31;56792;50.644;17.984;2023-07-30T14:10:40;29.24;40.77
69589;SHT31;56792;50.644;17.984;2023-07-30T14:13:09;28.89;41.03
69589;SHT31;56792;50.644;17.984;2023-07-30T14:15:37;28.60;42.20
69589;SHT31;56792;50.644;17.984;2023-07-30T14:18:05;28.31;43.76
69589;SHT31;56792;50.644;17.984;2023-07-30T14:20:34;27.97;44.84
69589;SHT31;56792;50.644;17.984;2023-07-30T14:23:03;27.68;45.53
69589;SHT31;56792;50.644;17.984;2023-07-30T14:25:32;27.37;46.00
69589;SHT31;56792;50.644;17.984;2023-07-30T14:28:00;27.12;46.88
69589;SHT31;56792;50.644;17.984;2023-07-30T14:30:28;26.79;48.96
69589;SHT31;56792;50.644;17.984;2023-07-30T14:32:57;26.32;51.03
69589;SHT31;56792;50.644;17.984;2023-07-30T14:35:25;25.83;52.75
69589;SHT31;56792;50.644;17.984;2023-07-30T14:37:54;25.38;54.53
69589;SHT31;56792;50.644;17.984;2023-07-30T14:40:22;24.94;56.54
69589;SHT31;56792;50.644;17.984;2023-07-30T14:42:51;24.47;58.81
69589;SHT31;56792;50.644;17.984;2023-07-30T14:45:19;24.16;59.63
69589;SHT31;56792;50.644;17.984;2023-07-30T14:47:47;23.90;60.84
69589;SHT31;56792;50.644;17.984;2023-07-30T14:50:16;23.66;61.89
69589;SHT31;56792;50.644;17.984;2023-07-30T14:52:44;23.45;63.68
69589;SHT31;56792;50.644;17.984;2023-07-30T14:55:12;23.25;65.08
69589;SHT31;56792;50.644;17.984;2023-07-30T14:57:41;23.22;65.62
69589;SHT31;56792;50.644;17.984;2023-07-30T15:00:11;23.29;66.06
69589;SHT31;56792;50.644;17.984;2023-07-30T15:02:42;23.41;66.15
69589;SHT31;56792;50.644;17.984;2023-07-30T15:05:11;23.52;65.71
69589;SHT31;56792;50.644;17.984;2023-07-30T15:07:39;23.66;64.60
69589;SHT31;56792;50.644;17.984;2023-07-30T15:10:08;23.83;64.16
69589;SHT31;56792;50.644;17.984;2023-07-30T15:12:37;23.94;63.64
69589;SHT31;56792;50.644;17.984;2023-07-30T15:15:06;23.98;63.72
69589;SHT31;56792;50.644;17.984;2023-07-30T15:17:37;24.13;64.35
69589;SHT31;56792;50.644;17.984;2023-07-30T15:20:06;24.30;63.10
69589;SHT31;56792;50.644;17.984;2023-07-30T15:22:36;24.34;62.86
69589;SHT31;56792;50.644;17.984;2023-07-30T15:25:06;24.34;63.34
69589;SHT31;56792;50.644;17.984;2023-07-30T15:27:34;24.40;63.15